Time;durP1;ratioP1;P1;durP2;ratioP2;P2;SDS_P1;SDS_P2;PMS_P1;PMS_P2;Temp;Humidity;BMP_temperature;BMP_pressure;BME280_temperature;BME280_humidity;BME280_pressure;Samples;Min_cycle;Max_cycle;Signal;HPM_P1;HPM_P2
2023/03/05 00:01:25;;;;;;;13.85;4.88;;;;;;;2.29;100.00;161167.97;5070889;28;20491;-61
2023/03/05 00:03:52;;;;;;;19.38;5.40;;;;;;;2.26;100.00;161159.94;5072716;28;20562;-61
2023/03/05 00:06:23;;;;;;;11.20;5.50;;;;;;;2.27;100.00;161162.66;5070989;28;20408;-61
2023/03/05 00:08:48;;;;;;;11.45;5.55;;;;;;;2.30;100.00;161170.66;5072415;28;20028;-61
2023/03/05 00:11:15;;;;;;;8.27;4.00;;;;;;;2.29;100.00;161167.97;5071163;28;20044;-61
2023/03/05 00:13:40;;;;;;;11.68;5.05;;;;;;;2.27;100.00;161162.66;5072311;28;20032;-61
2023/03/05 00:16:12;;;;;;;13.73;4.93;;;;;;;2.28;100.00;161165.28;5070768;28;20048;-61
2023/03/05 00:18:37;;;;;;;27.67;6.43;;;;;;;2.29;100.00;161167.97;5072172;28;20039;-61
2023/03/05 00:21:04;;;;;;;10.88;4.95;;;;;;;2.28;100.00;161165.28;5071039;28;20059;-61
2023/03/05 00:23:29;;;;;;;21.52;7.03;;;;;;;2.28;100.00;161165.28;5072164;28;20599;-61
2023/03/05 00:25:54;;;;;;;19.48;5.45;;;;;;;2.26;100.00;161161.28;5069758;28;20048;-61
2023/03/05 00:28:20;;;;;;;14.45;5.22;;;;;;;2.23;100.00;161153.25;5072163;28;20032;-61
2023/03/05 00:30:45;;;;;;;18.55;6.45;;;;;;;2.29;100.00;161167.97;5070041;28;20045;-61
2023/03/05 00:33:11;;;;;;;13.07;5.80;;;;;;;2.31;100.00;161173.34;5072001;28;20040;-61
2023/03/05 00:35:42;;;;;;;27.00;6.30;;;;;;;2.34;100.00;161181.44;5070335;28;20040;-61
2023/03/05 00:38:08;;;;;;;17.33;6.72;;;;;;;2.31;100.00;161173.34;5071410;28;20480;-61
2023/03/05 00:40:39;;;;;;;17.67;6.35;;;;;;;2.38;100.00;161192.16;5070275;28;20047;-61
2023/03/05 00:43:05;;;;;;;13.15;4.72;;;;;;;2.41;100.00;161200.22;5072237;28;20032;-61
2023/03/05 00:45:31;;;;;;;13.73;5.57;;;;;;;2.35;100.00;161184.06;5070319;28;20039;-61
2023/03/05 00:47:56;;;;;;;12.43;4.53;;;;;;;2.31;100.00;161174.69;5071950;28;20381;-61
2023/03/05 00:50:22;;;;;;;14.68;7.53;;;;;;;2.33;100.00;161178.75;5070409;28;20052;-62
2023/03/05 00:52:47;;;;;;;15.88;5.95;;;;;;;2.30;100.00;161170.66;5071244;28;20017;-62
2023/03/05 00:55:12;;;;;;;10.20;5.63;;;;;;;2.24;100.00;161155.88;5070231;28;20041;-61
2023/03/05 00:57:38;;;;;;;13.15;7.00;;;;;;;2.29;100.00;161167.97;5071416;28;20028;-62
2023/03/05 01:00:04;;;;;;;17.40;5.90;;;;;;;2.30;100.00;161170.66;5069997;28;20044;-62
2023/03/05 01:02:30;;;;;;;10.23;5.70;;;;;;;2.35;100.00;161184.06;5071677;28;20103;-62
2023/03/05 01:04:55;;;;;;;10.38;4.22;;;;;;;2.31;100.00;161173.34;5069501;28;20518;-62
2023/03/05 01:07:20;;;;;;;13.05;5.35;;;;;;;2.29;100.00;161167.97;5071307;28;20028;-62
2023/03/05 01:09:46;;;;;;;16.10;6.28;;;;;;;2.31;100.00;161173.34;5064357;28;20504;-61
2023/03/05 01:12:11;;;;;;;13.93;8.15;;;;;;;2.30;100.00;161172.03;5071105;28;20093;-61
2023/03/05 01:14:36;;;;;;;13.07;7.20;;;;;;;2.27;100.00;161163.97;5069636;28;20040;-61
2023/03/05 01:17:02;;;;;;;9.80;4.03;;;;;;;2.26;100.00;161161.28;5071174;28;20028;-61
2023/03/05 01:19:28;;;;;;;12.43;6.82;;;;;;;2.28;100.00;161165.28;5069791;28;20111;-60
2023/03/05 01:21:53;;;;;;;8.25;4.57;;;;;;;2.24;100.00;161155.88;5070804;28;20024;-61
2023/03/05 01:24:19;;;;;;;12.45;5.22;;;;;;;2.22;100.00;161151.88;5071474;28;20020;-61
2023/03/05 01:26:45;;;;;;;16.83;4.50;;;;;;;2.21;100.00;161149.19;5069665;28;20389;-61
2023/03/05 01:29:10;;;;;;;15.93;5.10;;;;;;;2.24;100.00;161154.56;5071062;28;20027;-61
2023/03/05 01:31:35;;;;;;;11.85;4.57;;;;;;;2.20;100.00;161145.19;5069227;28;20660;-61
2023/03/05 01:34:01;;;;;;;12.80;6.38;;;;;;;2.22;100.00;161151.88;5070930;28;20043;-61
2023/03/05 01:36:26;;;;;;;16.95;5.85;;;;;;;2.20;100.00;161146.50;5069106;28;20032;-60
2023/03/05 01:38:52;;;;;;;16.98;6.05;;;;;;;2.20;100.00;161146.50;5070139;28;20024;-61
2023/03/05 01:41:18;;;;;;;13.98;5.72;;;;;;;2.19;100.00;161143.84;5069429;28;20067;-61
2023/03/05 01:43:45;;;;;;;9.85;5.72;;;;;;;2.20;100.00;161146.50;5070732;28;20021;-61
2023/03/05 01:46:38;;;;;;;8.30;4.85;;;;;;;2.18;100.00;161141.16;5068822;28;20101;-61
2023/03/05 01:49:19;;;;;;;18.27;6.70;;;;;;;2.17;100.00;161138.47;5071030;28;20103;-61
2023/03/05 01:51:55;;;;;;;10.55;5.90;;;;;;;2.14;100.00;161130.41;5068855;28;20128;-61
2023/03/05 01:54:23;;;;;;;19.75;5.93;;;;;;;2.08;100.00;161112.97;5070869;28;20024;-61
2023/03/05 01:56:52;;;;;;;9.82;4.68;;;;;;;2.12;100.00;161125.06;5069293;28;20136;-60
2023/03/05 01:59:18;;;;;;;11.77;5.80;;;;;;;2.13;100.00;161127.72;5070567;28;20028;-61
2023/03/05 02:01:46;;;;;;;20.48;7.20;;;;;;;2.08;100.00;161114.31;5068985;28;20414;-61
2023/03/05 02:04:16;;;;;;;19.02;6.97;;;;;;;2.05;100.00;161106.22;5070150;28;20402;-61
2023/03/05 02:06:43;;;;;;;13.38;5.65;;;;;;;2.08;100.00;161114.31;5068513;28;20045;-60
2023/03/05 02:09:09;;;;;;;11.85;4.82;;;;;;;2.10;100.00;161119.69;5071115;28;20382;-61
2023/03/05 02:11:35;;;;;;;13.10;4.10;;;;;;;2.10;100.00;161119.69;5068881;28;20580;-61
2023/03/05 02:14:02;;;;;;;15.88;4.20;;;;;;;2.03;100.00;161100.91;5069924;28;20028;-60
2023/03/05 02:16:34;;;;;;;14.45;4.43;;;;;;;2.03;100.00;161100.91;5069197;28;20032;-61
2023/03/05 02:19:01;;;;;;;11.30;5.18;;;;;;;2.01;100.00;161095.50;5071067;28;20028;-61
2023/03/05 02:21:34;;;;;;;13.68;5.10;;;;;;;2.05;100.00;161106.22;5068591;28;20090;-60
2023/03/05 02:24:00;;;;;;;17.45;7.00;;;;;;;2.04;100.00;161103.59;5070971;28;20047;-60
2023/03/05 02:26:25;;;;;;;9.52;4.30;;;;;;;2.02;100.00;161098.19;5068981;28;20174;-60
2023/03/05 02:28:58;;;;;;;13.30;6.53;;;;;;;2.05;100.00;161106.22;5069895;28;20036;-60
2023/03/05 02:31:24;;;;;;;6.30;3.90;;;;;;;2.02;100.00;161099.53;5068747;28;20075;-61
2023/03/05 02:33:51;;;;;;;13.80;5.15;;;;;;;2.06;100.00;161108.91;5069899;28;20040;-60
2023/03/05 02:36:17;;;;;;;10.25;3.72;;;;;;;2.06;100.00;161110.28;5068909;28;20076;-60
2023/03/05 02:38:43;;;;;;;19.27;6.18;;;;;;;2.09;100.00;161117.00;5070389;28;20128;-60
2023/03/05 02:41:09;;;;;;;13.75;4.40;;;;;;;2.09;100.00;161117.00;5068548;28;20060;-61
2023/03/05 02:43:35;;;;;;;11.75;5.72;;;;;;;2.04;100.00;161103.59;5069666;28;20093;-61
2023/03/05 02:46:00;;;;;;;12.13;5.55;;;;;;;2.04;100.00;161103.59;5068863;28;20048;-61
2023/03/05 02:48:26;;;;;;;10.57;5.75;;;;;;;2.02;100.00;161099.53;5070838;28;20021;-61
2023/03/05 02:50:52;;;;;;;11.63;4.88;;;;;;;1.97;100.00;161084.81;5072275;28;20116;-60
2023/03/05 02:53:17;;;;;;;5.88;3.97;;;;;;;2.00;100.00;161092.81;5073801;28;20403;-60
2023/03/05 02:55:46;;;;;;;11.55;5.57;;;;;;;1.95;100.00;161080.75;5072450;28;20037;-60
2023/03/05 02:58:11;;;;;;;13.23;6.75;;;;;;;2.01;100.00;161096.84;5073490;28;20032;-60
2023/03/05 03:00:36;;;;;;;8.95;4.28;;;;;;;1.98;100.00;161087.44;5072364;28;20067;-60
2023/03/05 03:03:02;;;;;;;13.45;6.20;;;;;;;1.99;100.00;161091.50;5073517;28;20013;-60
2023/03/05 03:05:27;;;;;;;13.00;4.95;;;;;;;1.98;100.00;161087.44;5072301;28;20032;-60
2023/03/05 03:07:53;;;;;;;4.32;3.92;;;;;;;1.98;100.00;161087.44;5073614;28;20467;-60
2023/03/05 03:10:18;;;;;;;10.02;4.22;;;;;;;1.98;100.00;161087.44;5072225;28;20032;-60
2023/03/05 03:12:43;;;;;;;12.30;5.28;;;;;;;2.02;100.00;161098.19;5073047;28;20024;-60
2023/03/05 03:15:10;;;;;;;15.07;6.63;;;;;;;1.99;100.00;161090.13;5072659;28;20036;-60
2023/03/05 03:17:36;;;;;;;21.30;6.75;;;;;;;1.96;100.00;161082.09;5073284;28;20162;-60
2023/03/05 03:20:05;;;;;;;14.10;4.57;;;;;;;1.99;100.00;161091.50;5072025;28;20534;-60
2023/03/05 03:22:30;;;;;;;11.32;4.78;;;;;;;2.02;100.00;161098.19;5073653;28;20033;-60
2023/03/05 03:24:55;;;;;;;10.98;5.50;;;;;;;1.98;100.00;161087.44;5071728;28;20407;-60
2023/03/05 03:27:22;;;;;;;8.43;5.13;;;;;;;2.00;100.00;161092.81;5073250;28;20082;-60
2023/03/05 03:29:47;;;;;;;7.75;5.00;;;;;;;1.88;100.00;161063.31;5071455;28;22758;-59
2023/03/05 03:32:13;;;;;;;9.52;5.35;;;;;;;1.87;100.00;161060.63;5073053;28;20471;-60
2023/03/05 03:34:38;;;;;;;15.52;7.47;;;;;;;1.84;100.00;161052.56;5071646;28;20028;-60
2023/03/05 03:37:03;;;;;;;11.75;4.70;;;;;;;1.80;100.00;161041.84;5073159;28;20027;-60
2023/03/05 03:39:29;;;;;;;8.60;4.00;;;;;;;1.81;100.00;161044.53;5071860;28;20031;-59
2023/03/05 03:41:55;;;;;;;11.85;4.50;;;;;;;1.83;100.00;161049.88;5072851;28;20098;-60
2023/03/05 03:44:21;;;;;;;11.77;4.43;;;;;;;1.83;100.00;161049.88;5072742;28;20404;-60
2023/03/05 03:46:47;;;;;;;12.38;5.70;;;;;;;1.81;100.00;161044.53;5071015;28;20052;-60
2023/03/05 03:49:19;;;;;;;14.15;4.97;;;;;;;1.86;100.00;161056.63;5073205;28;20023;-60
2023/03/05 03:51:46;;;;;;;13.70;6.00;;;;;;;1.92;100.00;161071.34;5071026;28;20040;-60
2023/03/05 03:54:13;;;;;;;16.25;4.75;;;;;;;1.89;100.00;161064.66;5073162;28;20024;-60
2023/03/05 03:56:38;;;;;;;5.22;3.28;;;;;;;1.89;100.00;161066.00;5071242;28;20116;-61
2023/03/05 03:59:03;;;;;;;12.20;4.47;;;;;;;1.92;100.00;161071.34;5072358;28;20438;-61
2023/03/05 04:01:29;;;;;;;13.20;4.88;;;;;;;1.93;100.00;161075.41;5070044;28;20059;-61
2023/03/05 04:03:54;;;;;;;9.93;4.72;;;;;;;1.79;100.00;161039.16;5072739;28;20024;-61
2023/03/05 04:06:19;;;;;;;13.82;5.20;;;;;;;1.91;100.00;161070.03;5070723;28;20045;-60
2023/03/05 04:08:45;;;;;;;4.10;3.63;;;;;;;1.93;100.00;161074.03;5072294;28;20031;-60
2023/03/05 04:11:10;;;;;;;11.55;4.47;;;;;;;1.93;100.00;161074.03;5071325;28;20047;-60
2023/03/05 04:13:36;;;;;;;14.00;6.18;;;;;;;1.88;100.00;161063.31;5071951;28;20028;-60
2023/03/05 04:16:01;;;;;;;12.60;7.00;;;;;;;1.90;100.00;161067.34;5070878;28;20036;-60
2023/03/05 04:18:26;;;;;;;11.18;4.80;;;;;;;1.84;100.00;161051.25;5072383;28;20032;-60
2023/03/05 04:20:52;;;;;;;7.78;4.68;;;;;;;1.82;100.00;161047.22;5070333;28;20032;-60
2023/03/05 04:23:17;;;;;;;21.58;5.57;;;;;;;1.84;100.00;161052.56;5072418;28;20407;-59
2023/03/05 04:25:42;;;;;;;12.38;5.20;;;;;;;1.83;100.00;161048.53;5070586;28;20197;-60
2023/03/05 04:28:08;;;;;;;6.82;3.85;;;;;;;1.80;100.00;161041.84;5071779;28;20029;-60
2023/03/05 04:30:33;;;;;;;6.22;3.85;;;;;;;1.76;100.00;161029.75;5070561;28;20048;-59
2023/03/05 04:32:59;;;;;;;12.80;3.53;;;;;;;1.75;100.00;161028.38;5071822;28;20051;-59
2023/03/05 04:35:24;;;;;;;7.43;4.63;;;;;;;1.72;100.00;161020.38;5070475;28;20036;-59
2023/03/05 04:37:49;;;;;;;6.22;4.13;;;;;;;1.69;100.00;161012.31;5071833;28;20028;-59
2023/03/05 04:40:16;;;;;;;6.05;4.60;;;;;;;1.68;100.00;161009.59;5070559;28;20032;-60
2023/03/05 04:42:42;;;;;;;13.27;3.70;;;;;;;1.69;100.00;161012.31;5071088;28;20128;-60
2023/03/05 04:45:07;;;;;;;4.55;3.55;;;;;;;1.68;100.00;161010.97;5070517;28;20044;-60
2023/03/05 04:47:33;;;;;;;11.10;3.78;;;;;;;1.65;100.00;161001.59;5071514;28;20175;-61
2023/03/05 04:49:58;;;;;;;8.95;4.10;;;;;;;1.69;100.00;161012.31;5070023;28;20048;-61
2023/03/05 04:52:24;;;;;;;6.88;4.97;;;;;;;1.71;100.00;161017.69;5071629;28;20434;-61
2023/03/05 04:54:49;;;;;;;14.88;6.35;;;;;;;1.73;100.00;161024.38;5070066;28;20037;-61
2023/03/05 04:57:14;;;;;;;17.25;7.00;;;;;;;1.73;100.00;161023.06;5071288;28;20032;-61
2023/03/05 04:59:40;;;;;;;16.77;4.68;;;;;;;1.74;100.00;161025.75;5070052;28;20047;-61
2023/03/05 05:02:05;;;;;;;12.35;4.60;;;;;;;1.76;100.00;161031.09;5071594;28;20514;-61
2023/03/05 05:04:32;;;;;;;14.15;6.05;;;;;;;1.72;100.00;161021.69;5069622;28;20399;-60
2023/03/05 05:06:57;;;;;;;15.43;5.07;;;;;;;1.74;100.00;161025.75;5071382;28;20097;-60
2023/03/05 05:09:24;;;;;;;14.32;5.95;;;;;;;1.75;100.00;161028.38;5071677;28;20455;-60
2023/03/05 05:11:49;;;;;;;6.05;4.47;;;;;;;1.73;100.00;161023.06;5063507;28;20044;-61
2023/03/05 05:14:15;;;;;;;12.13;6.47;;;;;;;1.76;100.00;161031.09;5071399;28;20082;-61
2023/03/05 05:16:40;;;;;;;12.00;5.35;;;;;;;1.74;100.00;161025.75;5069489;28;20123;-61
2023/03/05 05:19:07;;;;;;;11.73;5.57;;;;;;;1.74;100.00;161025.75;5070614;28;20028;-61
2023/03/05 05:21:32;;;;;;;15.43;6.20;;;;;;;1.65;100.00;161002.91;5069071;28;20044;-60
2023/03/05 05:23:58;;;;;;;11.07;6.43;;;;;;;1.70;100.00;161015.00;5071147;28;20035;-60
2023/03/05 05:26:23;;;;;;;15.98;5.30;;;;;;;1.64;100.00;160998.91;5069214;28;20056;-59
2023/03/05 05:28:48;;;;;;;14.57;6.72;;;;;;;1.63;100.00;160996.22;5070751;28;20490;-59
2023/03/05 05:31:15;;;;;;;9.60;5.00;;;;;;;1.67;100.00;161006.97;5069335;28;20071;-60
2023/03/05 05:33:42;;;;;;;19.10;6.00;;;;;;;1.68;100.00;161009.59;5070433;28;20501;-60
2023/03/05 05:36:10;;;;;;;21.48;7.15;;;;;;;1.69;100.00;161012.31;5069743;28;20551;-60
2023/03/05 05:38:35;;;;;;;17.00;6.47;;;;;;;1.60;100.00;160988.19;5070645;28;20494;-60
2023/03/05 05:41:03;;;;;;;20.83;7.72;;;;;;;1.65;100.00;161001.59;5068975;28;20056;-60
2023/03/05 05:43:29;;;;;;;41.67;9.45;;;;;;;1.65;100.00;161001.59;5071358;28;20028;-60
2023/03/05 05:45:58;;;;;;;11.10;5.75;;;;;;;1.67;100.00;161006.97;5069027;28;20060;-60
2023/03/05 05:48:23;;;;;;;;;;;;;;;1.71;100.00;161019.00;5070770;28;20028;-60
2023/03/05 05:50:49;;;;;;;20.10;7.18;;;;;;;1.70;100.00;161015.00;5069324;28;19912;-59
2023/03/05 05:53:14;;;;;;;11.68;7.95;;;;;;;1.73;100.00;161024.38;5070879;28;20158;-59
2023/03/05 05:55:40;;;;;;;20.08;8.10;;;;;;;1.73;100.00;161023.06;5068895;28;20044;-60
2023/03/05 05:58:05;;;;;;;12.80;6.15;;;;;;;1.75;100.00;161028.38;5070517;28;20459;-60
2023/03/05 06:00:30;;;;;;;9.15;6.60;;;;;;;1.71;100.00;161017.69;5068793;28;20040;-59
2023/03/05 06:02:56;;;;;;;10.52;6.75;;;;;;;1.77;100.00;161032.44;5070169;28;20024;-59
2023/03/05 06:05:21;;;;;;;20.75;7.97;;;;;;;1.76;100.00;161031.09;5069321;28;20044;-59
2023/03/05 06:07:47;;;;;;;16.40;7.93;;;;;;;1.75;100.00;161028.38;5070666;28;20492;-59
2023/03/05 06:10:12;;;;;;;9.18;5.63;;;;;;;1.78;100.00;161036.47;5068995;28;20453;-59
2023/03/05 06:12:37;;;;;;;21.13;7.03;;;;;;;1.80;100.00;161040.47;5070386;28;20032;-60
2023/03/05 06:15:03;;;;;;;14.38;7.20;;;;;;;1.80;100.00;161040.47;5069122;28;20040;-59
2023/03/05 06:17:29;;;;;;;19.58;8.40;;;;;;;1.79;100.00;161039.16;5070414;28;20024;-60
2023/03/05 06:19:54;;;;;;;7.93;5.40;;;;;;;1.81;100.00;161043.16;5067348;28;20037;-58
2023/03/05 06:22:20;;;;;;;7.38;6.07;;;;;;;1.82;100.00;161047.22;5069475;28;20386;-58
2023/03/05 06:24:45;;;;;;;11.68;6.88;;;;;;;1.82;100.00;161047.22;5070336;28;20423;-59
2023/03/05 06:27:10;;;;;;;12.20;6.63;;;;;;;1.83;100.00;161048.53;5072172;28;20463;-59
2023/03/05 06:29:36;;;;;;;17.58;6.70;;;;;;;1.83;100.00;161049.88;5070499;28;20028;-59
2023/03/05 06:32:01;;;;;;;15.75;6.57;;;;;;;1.81;100.00;161044.53;5074640;28;20016;-59
2023/03/05 06:34:26;;;;;;;13.82;7.72;;;;;;;1.85;100.00;161055.25;5074023;28;20070;-59
2023/03/05 06:36:52;;;;;;;13.90;6.85;;;;;;;1.85;100.00;161055.25;5071254;28;20063;-59
2023/03/05 06:39:17;;;;;;;21.40;6.80;;;;;;;1.84;100.00;161051.25;5073350;28;20024;-59
2023/03/05 06:41:43;;;;;;;11.88;6.88;;;;;;;1.85;100.00;161055.25;5071331;28;20049;-59
2023/03/05 06:44:08;;;;;;;11.32;6.63;;;;;;;1.90;100.00;161068.66;5072926;28;20107;-59
2023/03/05 06:46:36;;;;;;;12.10;7.30;;;;;;;1.89;100.00;161066.00;5071312;28;20056;-59
2023/03/05 06:49:02;;;;;;;11.15;7.43;;;;;;;1.98;100.00;161087.44;5072706;28;20107;-59
2023/03/05 06:51:34;;;;;;;12.75;6.40;;;;;;;2.03;100.00;161100.91;5071232;28;20125;-59
2023/03/05 06:54:02;;;;;;;12.15;7.82;;;;;;;2.08;100.00;161112.97;5072620;28;20025;-59
2023/03/05 06:56:28;;;;;;;10.43;7.20;;;;;;;2.09;100.00;161115.63;5071315;28;20036;-59
2023/03/05 06:58:54;;;;;;;15.65;7.65;;;;;;;2.09;100.00;161117.00;5072453;28;20074;-59
2023/03/05 07:01:20;;;;;;;16.80;5.85;;;;;;;2.10;100.00;161119.69;5072166;28;20091;-59
2023/03/05 07:03:49;;;;;;;13.57;7.45;;;;;;;2.14;100.00;161130.41;5072994;28;20080;-59
2023/03/05 07:06:14;;;;;;;13.02;6.82;;;;;;;2.19;100.00;161143.84;5070310;28;20419;-59
2023/03/05 07:08:42;;;;;;;11.23;6.13;;;;;;;2.19;100.00;161143.84;5072385;28;20036;-59
2023/03/05 07:11:17;;;;;;;12.88;5.90;;;;;;;2.20;100.00;161146.50;5070724;28;20045;-59
2023/03/05 07:13:42;;;;;;;14.68;7.80;;;;;;;2.25;100.00;161157.25;5072165;28;20025;-59
2023/03/05 07:16:12;;;;;;;13.77;7.25;;;;;;;2.26;100.00;161159.94;5071078;28;20047;-59
2023/03/05 07:18:37;;;;;;;11.35;7.07;;;;;;;2.31;100.00;161173.34;5071996;28;20042;-59
2023/03/05 07:21:04;;;;;;;12.80;6.68;;;;;;;2.28;100.00;161165.28;5069442;28;20411;-59
2023/03/05 07:23:30;;;;;;;8.85;5.65;;;;;;;2.29;100.00;161167.97;5072599;28;20412;-59
2023/03/05 07:25:55;;;;;;;9.38;5.57;;;;;;;2.33;100.00;161178.75;5070864;28;20048;-59
2023/03/05 07:28:21;;;;;;;9.05;5.53;;;;;;;2.34;100.00;161181.44;5071651;28;20032;-59
2023/03/05 07:30:56;;;;;;;9.98;5.60;;;;;;;2.31;100.00;161174.69;5070250;28;20136;-59
2023/03/05 07:33:22;;;;;;;11.10;5.38;;;;;;;2.29;100.00;161167.97;5071826;28;20472;-59
2023/03/05 07:35:47;;;;;;;10.68;6.72;;;;;;;2.30;100.00;161170.66;5070206;28;20037;-59
2023/03/05 07:38:12;;;;;;;6.70;4.45;;;;;;;2.41;100.00;161200.22;5073013;28;20035;-59
2023/03/05 07:40:38;;;;;;;7.15;4.22;;;;;;;2.37;100.00;161189.47;5069986;28;20601;-59
2023/03/05 07:43:03;;;;;;;7.18;4.78;;;;;;;2.39;100.00;161194.84;5071418;28;20401;-59
2023/03/05 07:45:28;;;;;;;5.70;4.35;;;;;;;2.46;100.00;161212.25;5070716;28;20041;-59
2023/03/05 07:47:55;;;;;;;6.57;4.38;;;;;;;2.52;100.00;161229.75;5071635;28;20032;-59
2023/03/05 07:50:20;;;;;;;14.10;7.18;;;;;;;2.47;100.00;161216.31;5069908;28;20119;-59
2023/03/05 07:52:45;;;;;;;6.50;3.83;;;;;;;2.51;100.00;161227.03;5071048;28;20043;-59
2023/03/05 07:55:11;;;;;;;8.65;4.15;;;;;;;2.53;100.00;161232.44;5070144;28;20040;-59
2023/03/05 07:57:37;;;;;;;7.53;4.13;;;;;;;2.63;100.00;161256.59;5071697;28;20020;-59
2023/03/05 08:00:04;;;;;;;5.80;4.45;;;;;;;2.65;100.00;161261.94;5070722;28;20040;-59
2023/03/05 08:02:29;;;;;;;7.40;4.00;;;;;;;2.73;100.00;161282.09;5071691;28;20032;-59
2023/03/05 08:04:55;;;;;;;5.47;4.65;;;;;;;2.68;100.00;161270.03;5069286;28;20048;-59
2023/03/05 08:07:20;;;;;;;5.93;4.22;;;;;;;2.70;100.00;161275.41;5071405;28;20021;-59
2023/03/05 08:09:46;;;;;;;8.63;4.15;;;;;;;2.72;100.00;161280.75;5070031;28;20025;-59
2023/03/05 08:12:11;;;;;;;6.95;3.30;;;;;;;2.70;100.00;161276.72;5071027;28;20145;-59
2023/03/05 08:14:36;;;;;;;3.78;3.47;;;;;;;2.82;100.00;161307.59;5070067;28;20032;-59
2023/03/05 08:17:03;;;;;;;10.90;6.05;;;;;;;2.89;100.00;161323.72;5071581;28;20060;-59
2023/03/05 08:19:28;;;;;;;4.68;4.28;;;;;;;2.93;100.00;161334.50;5071992;28;20388;-59
2023/03/05 08:21:54;;;;;;;4.82;4.43;;;;;;;2.99;100.00;161351.91;5067878;28;20041;-59
2023/03/05 08:24:19;;;;;;;6.43;4.45;;;;;;;3.28;100.00;161425.81;5063871;28;20024;-59
2023/03/05 08:26:45;;;;;;;6.50;4.80;;;;;;;3.44;100.00;161468.81;5069663;28;20045;-59
2023/03/05 08:29:10;;;;;;;6.82;5.05;;;;;;;3.48;100.00;161478.22;5070654;28;20036;-59
2023/03/05 08:31:36;;;;;;;5.82;3.50;;;;;;;3.54;100.00;161494.31;5068749;28;20051;-59
2023/03/05 08:34:02;;;;;;;7.10;3.92;;;;;;;3.90;100.00;161587.03;5071774;28;20050;-59
2023/03/05 08:36:28;;;;;;;13.30;5.43;;;;;;;3.94;100.00;161597.78;5067716;28;20178;-59
2023/03/05 08:38:54;;;;;;;5.78;4.00;;;;;;;4.20;100.00;161665.00;5069866;28;20027;-59
2023/03/05 08:41:20;;;;;;;3.35;3.05;;;;;;;4.19;100.00;161662.31;5068972;28;20523;-59
2023/03/05 08:43:45;;;;;;;8.68;3.25;;;;;;;4.04;100.00;161624.66;5070085;28;20028;-59
2023/03/05 08:46:12;;;;;;;6.18;5.18;;;;;;;4.08;100.00;161634.06;5069374;28;20048;-59
2023/03/05 08:48:38;;;;;;;8.50;2.80;;;;;;;4.01;100.00;161616.59;5071459;28;20033;-59
2023/03/05 08:51:21;;;;;;;4.60;3.05;;;;;;;3.83;100.00;161568.22;5068980;28;20044;-59
2023/03/05 08:53:46;;;;;;;6.35;3.83;;;;;;;3.79;100.00;161560.16;5070796;28;20028;-59
2023/03/05 08:56:12;;;;;;;6.03;4.53;;;;;;;3.77;100.00;161553.44;5069305;28;20499;-59
2023/03/05 08:58:38;;;;;;;5.78;4.47;;;;;;;3.84;100.00;161570.88;5069528;28;20047;-59
2023/03/05 09:01:04;;;;;;;6.53;4.57;;;;;;;3.91;100.00;161591.06;5069190;28;20546;-59
2023/03/05 09:03:30;;;;;;;7.68;4.43;;;;;;;4.06;100.00;161628.69;5070947;28;20107;-59
2023/03/05 09:06:04;;;;;;;9.30;5.47;;;;;;;4.07;100.00;161632.69;5068120;28;20135;-59
2023/03/05 09:08:29;;;;;;;14.95;4.25;;;;;;;4.40;100.00;161717.38;5050805;28;20029;-59
2023/03/05 09:10:55;;;;;;;5.93;5.18;;;;;;;4.76;100.00;161812.84;5049410;28;20094;-59
2023/03/05 09:13:21;;;;;;;5.10;3.97;;;;;;;4.81;100.00;161823.59;5050144;28;20029;-59
2023/03/05 09:15:56;;;;;;;7.30;3.35;;;;;;;4.73;100.00;161804.75;5064778;28;20041;-59
2023/03/05 09:18:22;;;;;;;4.78;3.22;;;;;;;4.64;100.00;161780.59;5070588;28;20028;-59
2023/03/05 09:20:47;;;;;;;5.75;3.47;;;;;;;4.56;100.00;161759.09;5066786;28;20043;-59
2023/03/05 09:23:12;;;;;;;6.25;3.45;;;;;;;4.26;100.00;161681.13;5070648;28;20025;-59
2023/03/05 09:25:42;;;;;;;4.55;3.13;;;;;;;4.24;100.00;161675.72;5068859;28;20529;-59
2023/03/05 09:28:08;;;;;;;4.93;3.30;;;;;;;4.97;100.00;161866.63;5070709;28;20030;-60
2023/03/05 09:30:36;;;;;;;5.47;3.13;;;;;;;5.68;100.00;162050.91;5068424;28;20047;-59
2023/03/05 09:33:03;;;;;;;4.15;3.67;;;;;;;6.54;100.00;162275.72;5070563;28;20040;-59
2023/03/05 09:35:29;;;;;;;3.03;2.70;;;;;;;6.34;100.00;162224.59;5069209;28;20028;-59
2023/03/05 09:37:54;;;;;;;5.22;3.20;;;;;;;6.60;100.00;162290.56;5069810;28;20031;-59
2023/03/05 09:40:20;;;;;;;7.32;2.80;;;;;;;6.52;100.00;162270.31;5068988;28;20064;-59
2023/03/05 09:43:04;;;;;;;5.75;3.70;;;;;;;5.53;100.00;162011.94;5070173;28;20028;-60
2023/03/05 09:45:38;;;;;;;3.70;2.47;;;;;;;6.12;100.00;162165.38;5068461;28;20048;-60
2023/03/05 09:48:22;;;;;;;7.15;3.58;;;;;;;6.75;100.00;162329.56;5070516;28;20016;-60
2023/03/05 09:51:02;;;;;;;7.38;3.47;;;;;;;6.84;100.00;162353.81;5068700;28;20094;-61
2023/03/05 09:53:27;;;;;;;3.83;2.55;;;;;;;6.59;100.00;162289.19;5069194;28;20032;-60
2023/03/05 09:55:54;;;;;;;4.55;2.55;;;;;;;6.50;100.00;162264.97;5068283;28;20235;-60
2023/03/05 09:58:31;;;;;;;9.48;2.70;;;;;;;6.86;100.00;162359.22;5069528;28;20480;-60
2023/03/05 10:01:01;;;;;;;8.60;3.05;;;;;;;7.48;100.00;162520.84;5068471;28;20044;-60
2023/03/05 10:03:31;;;;;;;5.15;2.40;;;;;;;6.98;100.00;162391.53;5070070;28;20480;-60
2023/03/05 10:06:13;;;;;;;7.95;2.58;;;;;;;6.43;100.00;162246.13;5068692;28;20051;-60
2023/03/05 10:08:57;;;;;;;5.35;3.08;;;;;;;6.02;100.00;162141.13;5069832;28;20489;-60
2023/03/05 10:11:38;;;;;;;3.88;3.45;;;;;;;6.29;100.00;162211.09;5068568;28;20036;-60
2023/03/05 10:14:06;;;;;;;5.32;2.63;;;;;;;6.22;100.00;162192.25;5070231;28;20029;-61
2023/03/05 10:16:57;;;;;;;5.93;2.45;;;;;;;5.76;100.00;162072.44;5068262;28;20067;-61
2023/03/05 10:19:40;;;;;;;6.03;2.78;;;;;;;5.66;100.00;162046.91;5069967;28;20127;-60
2023/03/05 10:22:26;;;;;;;4.75;2.67;;;;;;;6.08;100.00;162154.56;5067565;28;21000;-60
2023/03/05 10:25:18;;;;;;;12.18;3.60;;;;;;;6.26;100.00;162201.69;5068068;28;20081;-61
2023/03/05 10:27:55;;;;;;;4.82;2.40;;;;;;;6.09;100.00;162157.28;5069804;28;20032;-61
2023/03/05 10:30:31;;;;;;;3.10;2.30;;;;;;;5.93;100.00;162116.84;5068256;28;20044;-61
2023/03/05 10:33:18;;;;;;;6.07;2.67;;;;;;;6.40;100.00;162238.03;5070475;28;20032;-61
2023/03/05 10:36:04;;;;;;;2.97;1.90;;;;;;;6.83;100.00;162351.13;5068235;28;20098;-60
2023/03/05 10:39:05;;;;;;;5.38;3.03;;;;;;;6.84;100.00;162353.81;5070035;28;20037;-60
2023/03/05 10:42:01;;;;;;;4.15;1.88;;;;;;;6.45;100.00;162251.47;5063886;28;20052;-61
2023/03/05 10:44:45;;;;;;;6.97;2.17;;;;;;;5.98;100.00;162130.34;5069774;28;20032;-60
2023/03/05 10:47:23;;;;;;;4.53;2.75;;;;;;;5.90;100.00;162108.81;5068512;28;20515;-60
2023/03/05 10:49:52;;;;;;;8.00;2.67;;;;;;;6.22;100.00;162192.25;5068208;28;20024;-60
2023/03/05 10:52:21;;;;;;;5.82;2.78;;;;;;;6.34;100.00;162223.22;5068851;28;20450;-60
2023/03/05 10:54:47;;;;;;;4.18;2.42;;;;;;;6.50;100.00;162264.97;5068092;28;20024;-61
2023/03/05 10:57:23;;;;;;;4.57;2.75;;;;;;;6.36;100.00;162228.63;5069997;28;20027;-60
2023/03/05 11:00:05;;;;;;;9.48;3.17;;;;;;;6.22;100.00;162192.25;5067520;28;20074;-60
2023/03/05 11:02:31;;;;;;;6.50;1.88;;;;;;;6.56;100.00;162281.13;5069578;28;20028;-60
2023/03/05 11:04:57;;;;;;;8.07;2.17;;;;;;;6.83;100.00;162351.13;5068258;28;20064;-60
2023/03/05 11:07:22;;;;;;;2.08;1.88;;;;;;;7.25;100.00;162461.59;5069025;28;20063;-61
2023/03/05 11:10:04;;;;;;;4.13;1.92;;;;;;;7.63;100.00;162559.91;5069171;28;20104;-60
2023/03/05 11:12:35;;;;;;;5.35;2.25;;;;;;;7.23;100.00;162456.19;5073360;28;20040;-61
2023/03/05 11:15:12;;;;;;;5.97;3.05;;;;;;;7.54;100.00;162537.00;5071413;28;20086;-60
2023/03/05 11:17:43;;;;;;;6.53;2.83;;;;;;;7.86;100.00;162620.50;5072818;28;20034;-60
2023/03/05 11:20:26;;;;;;;6.88;2.20;;;;;;;7.41;100.00;162502.00;5071502;28;20095;-61
2023/03/05 11:23:10;;;;;;;3.20;2.33;;;;;;;6.86;100.00;162357.84;5072447;28;20032;-61
2023/03/05 11:25:55;;;;;;;7.57;2.72;;;;;;;6.93;100.00;162378.06;5071535;28;20058;-60